createdAt,value
2018-11-22T00:01:00.643Z,60.67
2018-11-22T00:03:50.444Z,60.56
2018-11-22T00:06:59.305Z,60.80
2018-11-22T00:09:49.112Z,60.87
2018-11-22T00:12:39.343Z,61.10
2018-11-22T00:15:29.555Z,61.06
2018-11-22T00:18:19.363Z,60.58
2018-11-22T00:20:50.127Z,60.83
2018-11-22T00:23:21.252Z,60.83
2018-11-22T00:26:11.068Z,60.60
2018-11-22T00:29:00.872Z,60.60
2018-11-22T00:31:50.723Z,60.53
2018-11-22T00:34:40.876Z,60.56
2018-11-22T00:37:30.681Z,60.72
2018-11-22T00:40:22.283Z,61.09
2018-11-22T00:43:12.379Z,60.77
2018-11-22T00:46:02.225Z,60.56
2018-11-22T00:48:52.377Z,60.66
2018-11-22T00:51:42.172Z,60.47
2018-11-22T00:54:31.980Z,60.29
2018-11-22T00:57:21.798Z,60.22
2018-11-22T01:00:14.394Z,60.38
2018-11-22T01:03:22.820Z,60.48
2018-11-22T01:06:12.629Z,60.44
2018-11-22T01:09:02.443Z,60.75
2018-11-22T01:11:52.244Z,60.84
2018-11-22T01:14:42.054Z,60.88
2018-11-22T01:17:31.864Z,60.90
2018-11-22T01:20:23.032Z,61.02
2018-11-22T01:23:12.840Z,61.04
2018-11-22T01:26:02.710Z,60.94
2018-11-22T01:29:12.017Z,60.85
2018-11-22T01:32:02.156Z,60.75
2018-11-22T01:38:06.097Z,61.05
2018-11-22T01:40:56.804Z,61.06
2018-11-22T01:43:46.609Z,60.84
2018-11-22T01:46:36.794Z,60.64
2018-11-22T01:49:26.841Z,60.52
2018-11-22T01:52:16.653Z,60.37
2018-11-22T01:55:07.720Z,60.21
2018-11-22T01:57:57.535Z,60.10
2018-11-22T02:00:47.382Z,60.16
2018-11-22T02:03:37.188Z,60.04
2018-11-22T02:06:27.004Z,60.15
2018-11-22T02:09:16.852Z,60.19
2018-11-22T02:12:06.949Z,60.02
2018-11-22T02:14:56.751Z,60.22
2018-11-22T02:17:46.575Z,60.29
2018-11-22T02:20:36.627Z,60.18
2018-11-22T02:23:26.436Z,60.19
2018-11-22T02:26:16.257Z,60.01
2018-11-22T02:29:06.297Z,60.19
2018-11-22T02:31:56.422Z,60.04
2018-11-22T02:34:46.480Z,60.19
2018-11-22T02:37:37.058Z,60.20
2018-11-22T02:40:27.068Z,60.39
2018-11-22T02:43:16.885Z,60.00
2018-11-22T02:46:06.761Z,60.08
2018-11-22T02:49:15.196Z,60.10
2018-11-22T02:52:05.012Z,60.07
2018-11-22T02:54:54.805Z,60.38
2018-11-22T02:57:45.355Z,60.56
2018-11-22T03:00:36.899Z,60.17
2018-11-22T03:03:26.917Z,60.39
2018-11-22T03:06:16.739Z,60.07
2018-11-22T03:09:10.021Z,60.33
2018-11-22T03:11:59.858Z,60.51
2018-11-22T03:14:49.994Z,60.72
2018-11-22T03:17:40.657Z,60.88
2018-11-22T03:20:30.447Z,60.55
2018-11-22T03:23:20.598Z,60.54
2018-11-22T03:26:10.710Z,60.63
2018-11-22T03:29:00.680Z,60.58
2018-11-22T03:31:50.482Z,60.71
2018-11-22T03:34:40.671Z,61.11
2018-11-22T03:37:31.042Z,60.76
2018-11-22T03:40:22.352Z,60.69
2018-11-22T03:43:12.545Z,60.52
2018-11-22T03:46:21.020Z,60.73
2018-11-22T03:49:10.829Z,60.80
2018-11-22T03:52:00.640Z,60.87
2018-11-22T03:54:50.439Z,60.74
2018-11-22T03:57:41.114Z,60.46
2018-11-22T04:00:31.297Z,60.41
2018-11-22T04:03:21.174Z,60.20
2018-11-22T04:06:11.310Z,60.18
2018-11-22T04:09:01.150Z,59.90
2018-11-22T04:11:50.962Z,59.75
2018-11-22T04:14:40.814Z,60.30
2018-11-22T04:17:23.103Z,60.09
2018-11-22T04:20:32.350Z,59.63
2018-11-22T04:23:22.190Z,59.83
2018-11-22T04:26:11.976Z,59.75
2018-11-22T04:29:02.222Z,59.94
2018-11-22T04:31:52.022Z,60.12
2018-11-22T04:34:41.832Z,59.94
2018-11-22T04:37:31.667Z,60.03
2018-11-22T04:40:40.428Z,60.12
2018-11-22T04:43:30.227Z,60.27
2018-11-22T04:46:20.469Z,58.98
2018-11-22T04:49:11.031Z,59.95
2018-11-22T04:52:00.829Z,59.78
2018-11-22T04:54:50.656Z,59.93
2018-11-22T04:57:40.938Z,59.97
2018-11-22T05:00:30.720Z,59.72
2018-11-22T05:03:20.527Z,59.86
2018-11-22T05:06:10.803Z,59.98
2018-11-22T05:09:00.902Z,59.82
2018-11-22T05:11:50.975Z,59.52
2018-11-22T05:14:40.853Z,59.75
2018-11-22T05:17:30.663Z,60.05
2018-11-22T05:20:21.646Z,60.06
2018-11-22T05:29:22.098Z,60.43
2018-11-22T05:32:11.904Z,60.38
2018-11-22T05:35:01.710Z,60.68
2018-11-22T05:37:51.558Z,60.43
2018-11-22T05:40:41.384Z,60.48
2018-11-22T05:43:31.231Z,60.19
2018-11-22T05:46:21.026Z,60.11
2018-11-22T05:49:10.994Z,60.14
2018-11-22T05:52:00.783Z,59.80
2018-11-22T05:54:51.035Z,59.95
2018-11-22T05:57:40.998Z,60.23
2018-11-22T06:00:32.228Z,59.43
2018-11-22T06:03:22.029Z,59.39
2018-11-22T06:06:11.827Z,59.58
2018-11-22T06:09:01.931Z,59.43
2018-11-22T06:11:51.963Z,59.67
2018-11-22T06:14:41.771Z,59.91
2018-11-22T06:17:50.207Z,59.75
2018-11-22T06:20:27.830Z,59.46
2018-11-22T06:23:40.337Z,59.48
2018-11-22T06:26:30.146Z,59.45
2018-11-22T06:29:19.955Z,59.43
2018-11-22T06:32:10.032Z,59.63
2018-11-22T06:35:00.912Z,59.64
2018-11-22T06:38:08.301Z,59.69
2018-11-22T06:40:58.124Z,59.58
2018-11-22T06:43:48.633Z,59.38
2018-11-22T06:46:38.434Z,59.42
2018-11-22T06:49:28.243Z,59.62
2018-11-22T06:52:18.042Z,59.77
2018-11-22T06:55:10.128Z,59.86
2018-11-22T06:58:00.406Z,59.76
2018-11-22T07:01:08.839Z,59.67
2018-11-22T07:03:51.410Z,59.56
2018-11-22T07:06:41.220Z,59.82
2018-11-22T07:09:31.035Z,59.99
2018-11-22T07:12:20.862Z,59.95
2018-11-22T07:15:11.870Z,59.79
2018-11-22T07:18:01.683Z,59.87
2018-11-22T07:20:51.899Z,59.99
2018-11-22T07:23:41.710Z,59.70
2018-11-22T07:26:31.499Z,59.73
2018-11-22T07:29:21.344Z,60.04
2018-11-22T07:32:11.175Z,60.03
2018-11-22T07:35:00.987Z,59.97
2018-11-22T07:37:51.166Z,59.88
2018-11-22T07:40:41.450Z,59.98
2018-11-22T07:43:32.610Z,59.89
2018-11-22T07:46:21.440Z,60.16
2018-11-22T07:49:29.929Z,59.85
2018-11-22T07:52:19.724Z,59.62
2018-11-22T07:55:11.535Z,59.66
2018-11-22T07:58:01.379Z,59.64
2018-11-22T08:00:51.190Z,59.31
2018-11-22T08:03:41.313Z,59.42
2018-11-22T08:06:31.104Z,59.29
2018-11-22T08:09:21.227Z,59.55
2018-11-22T08:12:30.103Z,59.17
2018-11-22T08:15:21.301Z,59.26
2018-11-22T08:18:11.295Z,59.28
2018-11-22T08:21:20.064Z,59.41
2018-11-22T08:24:09.942Z,59.54
2018-11-22T08:26:59.742Z,59.58
2018-11-22T08:30:08.182Z,59.83
2018-11-22T08:32:57.977Z,59.76
2018-11-22T08:35:48.090Z,59.39
2018-11-22T08:38:37.879Z,59.39
2018-11-22T08:41:27.966Z,59.45
2018-11-22T08:44:17.768Z,59.25
2018-11-22T08:47:12.004Z,59.00
2018-11-22T08:49:57.912Z,59.54
2018-11-22T08:52:48.806Z,58.66
2018-11-22T08:55:38.609Z,58.29
2018-11-22T08:58:28.404Z,57.76
2018-11-22T09:01:18.210Z,57.70
2018-11-22T09:04:08.085Z,56.23
2018-11-22T09:06:57.893Z,56.76
2018-11-22T09:09:47.691Z,56.59
2018-11-22T09:12:37.496Z,55.09
2018-11-22T09:15:31.458Z,54.65
2018-11-22T09:18:18.260Z,53.71
2018-11-22T09:21:08.088Z,53.78
2018-11-22T09:23:57.889Z,53.78
2018-11-22T09:26:47.954Z,53.09
2018-11-22T09:29:39.611Z,53.44
2018-11-22T09:32:27.558Z,53.12
2018-11-22T09:35:17.982Z,53.39
2018-11-22T09:38:07.762Z,53.17
2018-11-22T09:40:57.608Z,52.81
2018-11-22T09:43:47.409Z,52.60
2018-11-22T09:46:37.213Z,52.30
2018-11-22T09:49:27.012Z,52.67
2018-11-22T09:52:16.825Z,52.37
2018-11-22T09:55:06.931Z,52.82
2018-11-22T09:57:56.733Z,52.37
2018-11-22T10:00:46.724Z,51.63
2018-11-22T10:03:36.338Z,51.95
2018-11-22T10:06:26.400Z,51.70
2018-11-22T10:09:16.252Z,51.19
2018-11-22T10:12:06.117Z,51.91
2018-11-22T10:14:55.950Z,51.48
2018-11-22T10:17:46.342Z,51.28
2018-11-22T10:20:36.480Z,51.61
2018-11-22T10:23:26.605Z,51.50
2018-11-22T10:26:16.414Z,51.05
2018-11-22T10:29:24.999Z,51.03
2018-11-22T10:32:14.867Z,51.05
2018-11-22T10:35:04.865Z,50.80
2018-11-22T10:37:54.771Z,51.10
2018-11-22T10:40:44.493Z,51.16
2018-11-22T10:43:34.836Z,50.98
2018-11-22T10:46:24.970Z,50.34
2018-11-22T10:49:14.769Z,50.43
2018-11-22T10:52:04.583Z,49.62
2018-11-22T10:54:54.382Z,50.78
2018-11-22T10:57:45.050Z,51.05
2018-11-22T11:00:53.500Z,50.07
2018-11-22T11:04:02.003Z,50.49
2018-11-22T11:06:58.628Z,50.37
2018-11-22T11:09:48.444Z,50.44
2018-11-22T11:12:38.288Z,49.67
2018-11-22T11:15:28.274Z,49.79
2018-11-22T11:18:18.081Z,50.05
2018-11-22T11:21:07.896Z,49.96
2018-11-22T11:23:57.704Z,49.68
2018-11-22T11:26:47.565Z,49.81
2018-11-22T11:29:37.360Z,49.85
2018-11-22T11:32:28.700Z,50.14
2018-11-22T11:35:19.718Z,50.20
2018-11-22T11:38:09.867Z,49.66
2018-11-22T11:40:59.677Z,49.44
2018-11-22T11:43:49.484Z,49.22
2018-11-22T11:46:39.331Z,50.20
2018-11-22T11:49:29.133Z,49.91
2018-11-22T11:52:18.948Z,49.75
2018-11-22T11:55:28.648Z,49.63
2018-11-22T11:58:18.465Z,49.76
2018-11-22T12:01:08.283Z,49.94
2018-11-22T12:03:58.076Z,50.30
2018-11-22T12:06:47.905Z,50.10
2018-11-22T12:09:37.737Z,50.08
2018-11-22T12:12:27.550Z,50.00
2018-11-22T12:15:18.696Z,50.22
2018-11-22T12:18:08.779Z,50.39
2018-11-22T12:20:58.587Z,50.22
2018-11-22T12:23:48.553Z,50.21
2018-11-22T12:26:38.239Z,49.94
2018-11-22T12:29:28.036Z,49.95
2018-11-22T12:32:36.733Z,49.86
2018-11-22T12:38:40.165Z,50.21
2018-11-22T12:41:48.617Z,50.46
2018-11-22T12:44:38.419Z,49.90
2018-11-22T12:47:28.240Z,49.98
2018-11-22T12:50:18.051Z,50.28
2018-11-22T12:53:08.113Z,50.36
2018-11-22T12:55:58.044Z,50.32
2018-11-22T12:58:47.888Z,50.21
2018-11-22T13:01:37.956Z,49.83
2018-11-22T13:04:27.781Z,49.97
2018-11-22T13:07:10.288Z,50.09
2018-11-22T13:10:00.127Z,49.87
2018-11-22T13:12:50.608Z,50.00
2018-11-22T13:15:40.413Z,50.04
2018-11-22T13:18:30.223Z,50.15
2018-11-22T13:21:20.045Z,50.07
2018-11-22T13:24:09.859Z,49.75
2018-11-22T13:26:59.705Z,49.44
2018-11-22T13:29:49.509Z,49.61
2018-11-22T13:32:39.555Z,49.52
2018-11-22T13:35:29.684Z,49.97
2018-11-22T13:38:19.493Z,50.09
2018-11-22T13:41:09.291Z,50.10
2018-11-22T13:43:59.112Z,50.08
2018-11-22T13:46:49.239Z,50.00
2018-11-22T13:49:39.094Z,49.98
2018-11-22T13:52:29.267Z,50.69
2018-11-22T13:55:37.719Z,50.61
2018-11-22T13:58:27.952Z,50.78
2018-11-22T14:00:58.712Z,50.57
2018-11-22T14:03:48.797Z,50.18
2018-11-22T14:06:38.908Z,50.61
2018-11-22T14:09:28.748Z,50.78
2018-11-22T14:12:18.608Z,50.67
2018-11-22T14:15:30.357Z,50.40
2018-11-22T14:18:20.421Z,50.60
2018-11-22T14:21:10.371Z,50.51
2018-11-22T14:24:00.439Z,50.73
2018-11-22T14:26:50.268Z,51.15
2018-11-22T14:29:40.401Z,51.04
2018-11-22T14:32:30.601Z,50.91
2018-11-22T14:35:21.182Z,51.30
2018-11-22T14:38:11.010Z,51.37
2018-11-22T14:41:01.110Z,51.63
2018-11-22T14:43:51.053Z,51.74
2018-11-22T14:46:40.871Z,51.36
2018-11-22T14:49:49.308Z,51.69
2018-11-22T14:52:39.600Z,51.65
2018-11-22T14:55:29.420Z,51.79
2018-11-22T14:58:19.239Z,51.76
2018-11-22T15:01:09.089Z,51.67
2018-11-22T15:03:58.901Z,51.98
2018-11-22T15:06:48.770Z,51.85
2018-11-22T15:09:38.942Z,51.87
2018-11-22T15:12:28.908Z,52.27
2018-11-22T15:15:20.662Z,52.24
2018-11-22T15:17:51.815Z,52.35
2018-11-22T15:20:23.499Z,52.55
2018-11-22T15:22:54.797Z,52.64
2018-11-22T15:25:27.356Z,52.59
2018-11-22T15:28:17.846Z,52.50
2018-11-22T15:31:07.956Z,52.42
2018-11-22T15:33:57.760Z,52.49
2018-11-22T15:36:47.568Z,52.38
2018-11-22T15:39:37.719Z,52.57
2018-11-22T15:42:27.516Z,52.91
2018-11-22T15:45:18.575Z,52.96
2018-11-22T15:48:08.388Z,52.87
2018-11-22T15:50:58.177Z,52.91
2018-11-22T15:53:48.257Z,53.14
2018-11-22T15:56:38.043Z,53.33
2018-11-22T15:59:27.919Z,53.61
2018-11-22T16:02:17.852Z,53.60
2018-11-22T16:05:08.828Z,53.56
2018-11-22T16:07:58.633Z,53.49
2018-11-22T16:10:48.450Z,53.61
2018-11-22T16:13:38.301Z,53.48
2018-11-22T16:16:28.129Z,53.40
2018-11-22T16:19:10.881Z,53.34
2018-11-22T16:22:00.968Z,53.31
2018-11-22T16:24:50.799Z,53.38
2018-11-22T16:27:40.790Z,53.58
2018-11-22T16:30:31.706Z,53.56
2018-11-22T16:33:21.529Z,53.63
2018-11-22T16:36:11.691Z,53.86
2018-11-22T16:39:01.461Z,53.99
2018-11-22T16:41:51.527Z,54.13
2018-11-22T16:44:41.343Z,53.95
2018-11-22T16:47:31.120Z,54.30
2018-11-22T16:50:22.526Z,54.47
2018-11-22T16:53:12.687Z,54.58
2018-11-22T16:56:02.494Z,54.76
2018-11-22T16:58:52.281Z,54.96
2018-11-22T17:01:43.093Z,55.54
2018-11-22T17:04:32.961Z,55.54
2018-11-22T17:07:22.755Z,56.49
2018-11-22T17:13:20.765Z,56.55
2018-11-22T17:16:10.843Z,56.77
2018-11-22T17:19:00.938Z,56.33
2018-11-22T17:21:51.760Z,56.48
2018-11-22T17:24:40.578Z,56.53
2018-11-22T17:27:30.371Z,56.76
2018-11-22T17:30:21.781Z,57.28
2018-11-22T17:33:11.581Z,56.79
2018-11-22T17:36:01.653Z,56.60
2018-11-22T17:38:51.743Z,56.76
2018-11-22T17:41:41.826Z,57.72
2018-11-22T17:44:31.624Z,57.56
2018-11-22T17:47:21.427Z,57.59
2018-11-22T17:50:16.364Z,57.27
2018-11-22T17:53:25.158Z,57.18
2018-11-22T17:56:14.981Z,57.15
2018-11-22T17:59:04.859Z,57.93
2018-11-22T18:01:54.703Z,58.30
2018-11-22T18:04:44.563Z,57.92
2018-11-22T18:07:34.586Z,58.17
2018-11-22T18:10:25.918Z,58.89
2018-11-22T18:13:15.707Z,58.71
2018-11-22T18:16:05.685Z,59.07
2018-11-22T18:18:55.724Z,58.55
2018-11-22T18:21:45.826Z,58.61
2018-11-22T18:24:35.626Z,58.97
2018-11-22T18:27:25.501Z,58.83
2018-11-22T18:30:17.452Z,58.02
2018-11-22T18:33:08.310Z,57.56
2018-11-22T18:35:58.145Z,58.12
2018-11-22T18:38:47.954Z,58.15
2018-11-22T18:41:37.771Z,58.36
2018-11-22T18:44:27.552Z,58.43
2018-11-22T18:47:17.878Z,58.42
2018-11-22T18:50:30.167Z,58.22
2018-11-22T18:53:19.975Z,58.39
2018-11-22T18:56:09.817Z,58.62
2018-11-22T18:58:59.646Z,58.86
2018-11-22T19:01:49.465Z,58.71
2018-11-22T19:04:39.260Z,58.66
2018-11-22T19:07:29.085Z,59.22
2018-11-22T19:10:37.591Z,59.20
2018-11-22T19:13:27.392Z,59.00
2018-11-22T19:16:17.208Z,58.91
2018-11-22T19:19:07.175Z,58.89
2018-11-22T19:21:57.000Z,58.90
2018-11-22T19:24:47.643Z,59.08
2018-11-22T19:27:37.479Z,59.58
2018-11-22T19:30:45.963Z,59.02
2018-11-22T19:33:36.043Z,58.82
2018-11-22T19:36:25.888Z,58.85
2018-11-22T19:39:16.018Z,59.32
2018-11-22T19:42:05.843Z,59.31
2018-11-22T19:44:55.690Z,59.24
2018-11-22T19:47:45.671Z,58.98
2018-11-22T19:50:35.603Z,58.95
2018-11-22T19:53:25.419Z,59.28
2018-11-22T19:56:15.247Z,59.09
2018-11-22T19:59:05.093Z,59.59
2018-11-22T20:01:54.934Z,59.66
2018-11-22T20:04:45.075Z,59.40
2018-11-22T20:07:34.897Z,59.06
2018-11-22T20:10:26.091Z,58.89
2018-11-22T20:13:16.193Z,58.72
2018-11-22T20:16:06.025Z,58.87
2018-11-22T20:18:55.818Z,58.90
2018-11-22T20:21:45.629Z,58.78
2018-11-22T20:24:35.427Z,58.99
2018-11-22T20:27:44.193Z,59.26
2018-11-22T20:30:35.268Z,59.48
2018-11-22T20:33:25.094Z,59.49
2018-11-22T20:36:14.887Z,59.47
2018-11-22T20:39:05.665Z,59.46
2018-11-22T20:41:55.514Z,59.37
2018-11-22T20:44:45.504Z,59.35
2018-11-22T20:47:35.384Z,59.69
2018-11-22T20:50:26.296Z,59.86
2018-11-22T20:53:16.113Z,59.75
2018-11-22T20:56:05.921Z,59.80
2018-11-22T20:58:55.737Z,60.46
2018-11-22T21:01:51.481Z,60.44
2018-11-22T21:04:28.221Z,60.65
2018-11-22T21:07:18.036Z,61.39
2018-11-22T21:10:13.834Z,61.01
2018-11-22T21:13:03.983Z,60.61
2018-11-22T21:15:54.067Z,60.43
2018-11-22T21:18:44.150Z,60.12
2018-11-22T21:21:34.233Z,60.13
2018-11-22T21:24:42.664Z,60.06
2018-11-22T21:27:32.518Z,60.42
2018-11-22T21:30:42.121Z,60.63
2018-11-22T21:33:31.928Z,60.33
2018-11-22T21:36:40.394Z,60.46
2018-11-22T21:39:48.826Z,61.01
2018-11-22T21:42:39.059Z,60.74
2018-11-22T21:45:29.246Z,60.45
2018-11-22T21:48:19.063Z,60.68
2018-11-22T21:51:08.863Z,60.38
2018-11-22T21:53:58.679Z,60.59
2018-11-22T21:56:48.479Z,60.74
2018-11-22T21:59:38.294Z,60.96
2018-11-22T22:02:28.683Z,61.89
2018-11-22T22:05:18.629Z,62.36
2018-11-22T22:08:08.822Z,62.21
2018-11-22T22:10:58.721Z,62.31
2018-11-22T22:13:48.547Z,61.82
2018-11-22T22:16:38.348Z,61.82
2018-11-22T22:19:28.465Z,61.63
2018-11-22T22:22:18.256Z,61.42
2018-11-22T22:25:09.761Z,61.65
2018-11-22T22:28:00.288Z,61.96
2018-11-22T22:30:50.094Z,61.69
2018-11-22T22:33:39.899Z,61.93
2018-11-22T22:36:29.692Z,62.08
2018-11-22T22:39:19.520Z,62.48
2018-11-22T22:42:09.309Z,62.23
2018-11-22T22:44:59.160Z,62.77
2018-11-22T22:47:50.049Z,62.20
2018-11-22T22:50:39.906Z,61.22
2018-11-22T22:53:48.334Z,61.83
2018-11-22T22:56:30.713Z,62.05
2018-11-22T22:59:20.536Z,62.00
2018-11-22T23:02:10.379Z,62.13
2018-11-22T23:05:00.220Z,62.13
2018-11-22T23:07:50.652Z,62.08
2018-11-22T23:10:40.465Z,62.05
2018-11-22T23:13:30.282Z,61.83
2018-11-22T23:16:20.082Z,61.39
2018-11-22T23:19:09.885Z,61.92
2018-11-22T23:21:59.756Z,61.93
2018-11-22T23:24:49.828Z,62.15
2018-11-22T23:27:40.078Z,62.24
2018-11-22T23:30:31.245Z,62.71
2018-11-22T23:33:21.039Z,62.37
2018-11-22T23:36:10.836Z,61.46
2018-11-22T23:39:00.647Z,62.15
2018-11-22T23:41:50.453Z,62.24
2018-11-22T23:44:40.253Z,62.40
2018-11-22T23:47:48.670Z,62.58
2018-11-22T23:50:38.475Z,62.48
2018-11-22T23:53:28.274Z,62.04
2018-11-22T23:56:18.105Z,62.03
2018-11-22T23:59:08.198Z,62.40
